Decoded Metar for LQBK (BANJA LUKA in BOSNIA-HERCEGOVINA) (IATA:N/A) | Meteo·Mobile Aviation Weather
aviador You're here:

LQBK Decoded Metar

BANJA LUKA in BOSNIA-HERCEGOVINA
Report Time2019-09-21 09:00:00
UTC Time2019-09-21 09:25:53
Flight Rules vfr VFR
Wind070° at 03 kt
W.Decomp.*RWY 35: 0.6 kt HW 2.9 kt RCW
Visibility9999 m
Phenomena:N/A
Clouds:N/A
Expected CloudBase > 3,600 ft AGL from Temp-Dew spread
CeilingNone
Temp15°C (ISA +1)
Dew Point06°C (55% RH)
AAT13.0°C
QNH1028 hPa
Density Alt118 ft
Elevation400 ft
Report Wrong Elevation
Raw Report
LQBK 210900Z 07003KT CAVOK 15/06 Q1028 NOSIG=

Extra information for LQBK:More info

Metar Taf Metar & Taf Last 4 Metars F.Rules Stats Wind Profile Meteogram Temp Stats Airport Information Weather charts Add Link Nearby VenuesMetar ALERT Operation Metar Decoded Social comments